sensor_id;sensor_type;location;lat;lon;timestamp;temperature;humidity
17956;DHT22;27666;51.498;11.966;2022-08-14T00:04:15;20.20;99.90
17956;DHT22;27666;51.498;11.966;2022-08-14T00:07:20;20.20;99.90
17956;DHT22;27666;51.498;11.966;2022-08-14T00:10:10;20.20;99.90
17956;DHT22;27666;51.498;11.966;2022-08-14T00:13:18;20.40;99.90
17956;DHT22;27666;51.498;11.966;2022-08-14T00:16:07;20.60;99.90
17956;DHT22;27666;51.498;11.966;2022-08-14T00:19:18;20.60;99.90
17956;DHT22;27666;51.498;11.966;2022-08-14T00:22:06;20.40;99.90
17956;DHT22;27666;51.498;11.966;2022-08-14T00:24:54;20.40;99.90
17956;DHT22;27666;51.498;11.966;2022-08-14T00:27:41;20.40;99.90
17956;DHT22;27666;51.498;11.966;2022-08-14T00:30:33;20.40;99.90
17956;DHT22;27666;51.498;11.966;2022-08-14T00:33:28;20.40;99.90
17956;DHT22;27666;51.498;11.966;2022-08-14T00:36:35;20.50;99.90
17956;DHT22;27666;51.498;11.966;2022-08-14T00:39:33;20.60;99.90
17956;DHT22;27666;51.498;11.966;2022-08-14T00:42:20;20.50;99.90
17956;DHT22;27666;51.498;11.966;2022-08-14T00:45:27;20.40;99.90
17956;DHT22;27666;51.498;11.966;2022-08-14T00:48:16;20.40;99.90
17956;DHT22;27666;51.498;11.966;2022-08-14T00:51:22;20.30;99.90
17956;DHT22;27666;51.498;11.966;2022-08-14T00:54:19;20.20;99.90
17956;DHT22;27666;51.498;11.966;2022-08-14T00:57:06;20.30;99.90
17956;DHT22;27666;51.498;11.966;2022-08-14T00:59:53;20.30;99.90
17956;DHT22;27666;51.498;11.966;2022-08-14T01:02:42;20.30;99.90
17956;DHT22;27666;51.498;11.966;2022-08-14T01:05:38;20.20;99.90
17956;DHT22;27666;51.498;11.966;2022-08-14T01:08:38;20.10;99.90
17956;DHT22;27666;51.498;11.966;2022-08-14T01:11:42;20.10;99.90
17956;DHT22;27666;51.498;11.966;2022-08-14T01:14:47;20.00;99.90
17956;DHT22;27666;51.498;11.966;2022-08-14T01:17:36;20.00;99.90
17956;DHT22;27666;51.498;11.966;2022-08-14T01:20:54;20.00;99.90
17956;DHT22;27666;51.498;11.966;2022-08-14T01:23:52;20.00;99.90
17956;DHT22;27666;51.498;11.966;2022-08-14T01:26:41;20.10;99.90
17956;DHT22;27666;51.498;11.966;2022-08-14T01:29:35;20.10;99.90
17956;DHT22;27666;51.498;11.966;2022-08-14T01:32:41;20.10;99.90
17956;DHT22;27666;51.498;11.966;2022-08-14T01:35:29;20.00;99.90
17956;DHT22;27666;51.498;11.966;2022-08-14T01:38:36;20.00;99.90
17956;DHT22;27666;51.498;11.966;2022-08-14T01:41:29;20.00;99.90
17956;DHT22;27666;51.498;11.966;2022-08-14T01:44:19;20.00;99.90
17956;DHT22;27666;51.498;11.966;2022-08-14T01:47:18;20.00;99.90
17956;DHT22;27666;51.498;11.966;2022-08-14T01:50:07;19.90;99.90
17956;DHT22;27666;51.498;11.966;2022-08-14T01:52:54;20.20;99.90
17956;DHT22;27666;51.498;11.966;2022-08-14T01:55:44;20.40;99.90
17956;DHT22;27666;51.498;11.966;2022-08-14T01:58:37;20.50;99.90
17956;DHT22;27666;51.498;11.966;2022-08-14T02:01:42;20.60;99.90
17956;DHT22;27666;51.498;11.966;2022-08-14T02:04:40;20.60;99.90
17956;DHT22;27666;51.498;11.966;2022-08-14T02:07:41;20.60;99.90
17956;DHT22;27666;51.498;11.966;2022-08-14T02:10:52;20.60;99.90
17956;DHT22;27666;51.498;11.966;2022-08-14T02:14:04;20.70;99.90
17956;DHT22;27666;51.498;11.966;2022-08-14T02:16:53;20.50;99.90
17956;DHT22;27666;51.498;11.966;2022-08-14T02:19:41;20.40;99.90
17956;DHT22;27666;51.498;11.966;2022-08-14T02:22:27;20.50;99.90
17956;DHT22;27666;51.498;11.966;2022-08-14T02:25:18;20.50;99.90
17956;DHT22;27666;51.498;11.966;2022-08-14T02:28:04;20.50;99.90
17956;DHT22;27666;51.498;11.966;2022-08-14T02:31:13;20.50;99.90
17956;DHT22;27666;51.498;11.966;2022-08-14T02:33:59;20.50;99.90
17956;DHT22;27666;51.498;11.966;2022-08-14T02:37:01;20.50;99.90
17956;DHT22;27666;51.498;11.966;2022-08-14T02:39:51;20.40;99.90
17956;DHT22;27666;51.498;11.966;2022-08-14T02:42:37;20.40;99.90
17956;DHT22;27666;51.498;11.966;2022-08-14T02:45:38;20.40;99.90
17956;DHT22;27666;51.498;11.966;2022-08-14T02:48:33;20.50;99.90
17956;DHT22;27666;51.498;11.966;2022-08-14T02:51:40;20.60;99.90
17956;DHT22;27666;51.498;11.966;2022-08-14T02:54:27;20.70;99.90
17956;DHT22;27666;51.498;11.966;2022-08-14T02:57:13;20.70;99.90
17956;DHT22;27666;51.498;11.966;2022-08-14T03:00:21;20.60;99.90
17956;DHT22;27666;51.498;11.966;2022-08-14T03:03:09;20.60;99.90
17956;DHT22;27666;51.498;11.966;2022-08-14T03:05:56;20.60;99.90
17956;DHT22;27666;51.498;11.966;2022-08-14T03:08:44;20.60;99.90
17956;DHT22;27666;51.498;11.966;2022-08-14T03:11:31;20.50;99.90
17956;DHT22;27666;51.498;11.966;2022-08-14T03:14:19;20.40;99.90
17956;DHT22;27666;51.498;11.966;2022-08-14T03:17:12;20.40;99.90
17956;DHT22;27666;51.498;11.966;2022-08-14T03:20:02;20.30;99.90
17956;DHT22;27666;51.498;11.966;2022-08-14T03:22:57;20.40;99.90
17956;DHT22;27666;51.498;11.966;2022-08-14T03:25:48;20.50;99.90
17956;DHT22;27666;51.498;11.966;2022-08-14T03:28:35;20.50;99.90
17956;DHT22;27666;51.498;11.966;2022-08-14T03:31:26;20.50;99.90
17956;DHT22;27666;51.498;11.966;2022-08-14T03:34:14;20.40;99.90
17956;DHT22;27666;51.498;11.966;2022-08-14T03:37:20;20.20;99.90
17956;DHT22;27666;51.498;11.966;2022-08-14T03:40:28;20.00;99.90
17956;DHT22;27666;51.498;11.966;2022-08-14T03:43:15;19.90;99.90
17956;DHT22;27666;51.498;11.966;2022-08-14T03:46:02;19.80;99.90
17956;DHT22;27666;51.498;11.966;2022-08-14T03:49:08;19.90;99.90
17956;DHT22;27666;51.498;11.966;2022-08-14T03:51:57;20.00;99.90
17956;DHT22;27666;51.498;11.966;2022-08-14T03:55:10;20.20;99.90
17956;DHT22;27666;51.498;11.966;2022-08-14T03:57:59;20.30;99.90
17956;DHT22;27666;51.498;11.966;2022-08-14T04:00:45;20.30;99.90
17956;DHT22;27666;51.498;11.966;2022-08-14T04:03:32;20.40;99.90
17956;DHT22;27666;51.498;11.966;2022-08-14T04:06:21;20.30;99.90
17956;DHT22;27666;51.498;11.966;2022-08-14T04:09:16;20.30;99.90
17956;DHT22;27666;51.498;11.966;2022-08-14T04:12:04;20.30;99.90
17956;DHT22;27666;51.498;11.966;2022-08-14T04:14:59;20.30;99.90
17956;DHT22;27666;51.498;11.966;2022-08-14T04:17:45;20.40;99.90
17956;DHT22;27666;51.498;11.966;2022-08-14T04:20:32;20.40;99.90
17956;DHT22;27666;51.498;11.966;2022-08-14T04:23:36;20.50;99.90
17956;DHT22;27666;51.498;11.966;2022-08-14T04:26:25;20.60;99.90
17956;DHT22;27666;51.498;11.966;2022-08-14T04:29:27;20.50;99.90
17956;DHT22;27666;51.498;11.966;2022-08-14T04:32:18;20.60;99.90
17956;DHT22;27666;51.498;11.966;2022-08-14T04:35:27;20.60;99.90
17956;DHT22;27666;51.498;11.966;2022-08-14T04:38:34;20.70;99.90
17956;DHT22;27666;51.498;11.966;2022-08-14T04:41:37;20.70;99.90
17956;DHT22;27666;51.498;11.966;2022-08-14T04:44:41;20.60;99.90
17956;DHT22;27666;51.498;11.966;2022-08-14T04:47:36;20.70;99.90
17956;DHT22;27666;51.498;11.966;2022-08-14T04:50:43;20.80;99.90
17956;DHT22;27666;51.498;11.966;2022-08-14T04:53:40;21.00;99.90
17956;DHT22;27666;51.498;11.966;2022-08-14T04:56:28;21.00;99.90
17956;DHT22;27666;51.498;11.966;2022-08-14T04:59:19;21.20;99.90
17956;DHT22;27666;51.498;11.966;2022-08-14T05:02:05;21.10;99.90
17956;DHT22;27666;51.498;11.966;2022-08-14T05:04:53;21.20;99.90
17956;DHT22;27666;51.498;11.966;2022-08-14T05:07:42;21.20;99.90
17956;DHT22;27666;51.498;11.966;2022-08-14T05:10:49;21.20;99.90
17956;DHT22;27666;51.498;11.966;2022-08-14T05:13:37;21.30;99.90
17956;DHT22;27666;51.498;11.966;2022-08-14T05:16:44;21.20;99.90
17956;DHT22;27666;51.498;11.966;2022-08-14T05:19:31;21.20;99.90
17956;DHT22;27666;51.498;11.966;2022-08-14T05:22:30;21.20;99.90
17956;DHT22;27666;51.498;11.966;2022-08-14T05:25:17;21.30;99.90
17956;DHT22;27666;51.498;11.966;2022-08-14T05:28:09;21.30;99.90
17956;DHT22;27666;51.498;11.966;2022-08-14T05:31:04;21.40;99.90
17956;DHT22;27666;51.498;11.966;2022-08-14T05:33:51;21.50;99.90
17956;DHT22;27666;51.498;11.966;2022-08-14T05:36:41;21.60;99.90
17956;DHT22;27666;51.498;11.966;2022-08-14T05:39:38;21.80;99.90
17956;DHT22;27666;51.498;11.966;2022-08-14T05:42:25;21.90;99.90
17956;DHT22;27666;51.498;11.966;2022-08-14T05:45:16;22.10;99.90
17956;DHT22;27666;51.498;11.966;2022-08-14T05:48:05;22.30;99.90
17956;DHT22;27666;51.498;11.966;2022-08-14T05:50:54;22.70;99.90
17956;DHT22;27666;51.498;11.966;2022-08-14T05:59:35;24.30;99.90
17956;DHT22;27666;51.498;11.966;2022-08-14T06:02:23;24.70;99.90
17956;DHT22;27666;51.498;11.966;2022-08-14T06:05:10;25.10;99.90
17956;DHT22;27666;51.498;11.966;2022-08-14T06:07:57;25.40;99.90
17956;DHT22;27666;51.498;11.966;2022-08-14T06:24:53;27.30;99.90
17956;DHT22;27666;51.498;11.966;2022-08-14T06:27:41;27.60;99.90
17956;DHT22;27666;51.498;11.966;2022-08-14T06:30:32;28.50;99.90
17956;DHT22;27666;51.498;11.966;2022-08-14T06:33:31;28.90;99.90
17956;DHT22;27666;51.498;11.966;2022-08-14T06:39:24;30.00;99.90
17956;DHT22;27666;51.498;11.966;2022-08-14T06:42:21;30.40;99.90
17956;DHT22;27666;51.498;11.966;2022-08-14T06:45:17;30.10;99.90
17956;DHT22;27666;51.498;11.966;2022-08-14T06:51:01;28.90;99.90
17956;DHT22;27666;51.498;11.966;2022-08-14T06:53:49;28.70;99.90
17956;DHT22;27666;51.498;11.966;2022-08-14T06:56:36;29.00;99.90
17956;DHT22;27666;51.498;11.966;2022-08-14T06:59:22;29.30;99.90
17956;DHT22;27666;51.498;11.966;2022-08-14T07:02:10;29.10;99.90
17956;DHT22;27666;51.498;11.966;2022-08-14T07:05:15;28.90;99.90
17956;DHT22;27666;51.498;11.966;2022-08-14T07:08:24;28.90;99.90
17956;DHT22;27666;51.498;11.966;2022-08-14T07:11:15;29.00;99.90
17956;DHT22;27666;51.498;11.966;2022-08-14T07:14:03;29.30;99.90
17956;DHT22;27666;51.498;11.966;2022-08-14T07:16:53;29.70;99.90
17956;DHT22;27666;51.498;11.966;2022-08-14T07:19:40;29.80;99.90
17956;DHT22;27666;51.498;11.966;2022-08-14T07:22:28;29.70;99.90
17956;DHT22;27666;51.498;11.966;2022-08-14T07:25:35;29.80;99.90
17956;DHT22;27666;51.498;11.966;2022-08-14T07:28:25;29.80;99.90
17956;DHT22;27666;51.498;11.966;2022-08-14T07:31:12;29.30;99.90
17956;DHT22;27666;51.498;11.966;2022-08-14T07:34:00;29.10;99.90
17956;DHT22;27666;51.498;11.966;2022-08-14T07:36:48;29.00;99.90
17956;DHT22;27666;51.498;11.966;2022-08-14T07:39:46;29.20;99.90
17956;DHT22;27666;51.498;11.966;2022-08-14T07:42:36;29.70;99.90
17956;DHT22;27666;51.498;11.966;2022-08-14T07:45:25;29.90;99.90
17956;DHT22;27666;51.498;11.966;2022-08-14T07:48:16;30.10;99.90
17956;DHT22;27666;51.498;11.966;2022-08-14T07:51:09;30.10;99.90
17956;DHT22;27666;51.498;11.966;2022-08-14T07:53:56;30.60;99.90
17956;DHT22;27666;51.498;11.966;2022-08-14T07:56:44;30.80;99.60
17956;DHT22;27666;51.498;11.966;2022-08-14T07:59:35;30.90;99.30
17956;DHT22;27666;51.498;11.966;2022-08-14T08:02:29;31.10;99.00
17956;DHT22;27666;51.498;11.966;2022-08-14T08:05:17;31.10;98.30
17956;DHT22;27666;51.498;11.966;2022-08-14T08:08:06;31.00;98.40
17956;DHT22;27666;51.498;11.966;2022-08-14T08:11:12;30.70;98.60
17956;DHT22;27666;51.498;11.966;2022-08-14T08:14:03;30.90;98.30
17956;DHT22;27666;51.498;11.966;2022-08-14T08:17:02;30.70;98.40
17956;DHT22;27666;51.498;11.966;2022-08-14T08:19:48;30.90;98.50
17956;DHT22;27666;51.498;11.966;2022-08-14T08:22:35;31.20;98.00
17956;DHT22;27666;51.498;11.966;2022-08-14T08:25:23;31.10;98.00
17956;DHT22;27666;51.498;11.966;2022-08-14T08:28:14;31.20;97.60
17956;DHT22;27666;51.498;11.966;2022-08-14T08:31:11;31.40;97.30
17956;DHT22;27666;51.498;11.966;2022-08-14T08:33:58;31.10;97.60
17956;DHT22;27666;51.498;11.966;2022-08-14T08:36:50;31.50;96.80
17956;DHT22;27666;51.498;11.966;2022-08-14T08:39:42;31.40;96.50
17956;DHT22;27666;51.498;11.966;2022-08-14T08:42:48;31.50;96.00
17956;DHT22;27666;51.498;11.966;2022-08-14T08:45:38;31.10;96.20
17956;DHT22;27666;51.498;11.966;2022-08-14T08:48:28;31.10;96.10
17956;DHT22;27666;51.498;11.966;2022-08-14T08:51:26;31.20;96.20
17956;DHT22;27666;51.498;11.966;2022-08-14T08:54:18;31.20;96.10
17956;DHT22;27666;51.498;11.966;2022-08-14T08:57:12;31.40;95.40
17956;DHT22;27666;51.498;11.966;2022-08-14T09:00:13;31.20;95.40
17956;DHT22;27666;51.498;11.966;2022-08-14T09:06:03;30.70;99.90
17956;DHT22;27666;51.498;11.966;2022-08-14T09:09:17;30.60;95.60
17956;DHT22;27666;51.498;11.966;2022-08-14T09:12:04;30.30;95.80
17956;DHT22;27666;51.498;11.966;2022-08-14T09:14:59;30.40;95.70
17956;DHT22;27666;51.498;11.966;2022-08-14T09:17:46;30.50;95.90
17956;DHT22;27666;51.498;11.966;2022-08-14T09:20:33;30.50;95.60
17956;DHT22;27666;51.498;11.966;2022-08-14T09:23:22;30.60;95.00
17956;DHT22;27666;51.498;11.966;2022-08-14T09:26:19;30.60;94.90
17956;DHT22;27666;51.498;11.966;2022-08-14T09:29:09;30.60;95.20
17956;DHT22;27666;51.498;11.966;2022-08-14T09:31:59;30.40;95.10
17956;DHT22;27666;51.498;11.966;2022-08-14T09:35:14;30.40;95.20
17956;DHT22;27666;51.498;11.966;2022-08-14T09:38:07;30.40;95.00
17956;DHT22;27666;51.498;11.966;2022-08-14T09:41:22;30.50;95.40
17956;DHT22;27666;51.498;11.966;2022-08-14T09:44:42;30.70;94.90
17956;DHT22;27666;51.498;11.966;2022-08-14T09:47:42;30.70;94.90
17956;DHT22;27666;51.498;11.966;2022-08-14T09:50:31;30.70;94.70
17956;DHT22;27666;51.498;11.966;2022-08-14T09:53:37;30.40;95.00
17956;DHT22;27666;51.498;11.966;2022-08-14T09:56:49;30.30;95.10
17956;DHT22;27666;51.498;11.966;2022-08-14T09:59:44;30.10;95.50
17956;DHT22;27666;51.498;11.966;2022-08-14T10:02:34;30.20;95.40
17956;DHT22;27666;51.498;11.966;2022-08-14T10:05:32;30.30;95.20
17956;DHT22;27666;51.498;11.966;2022-08-14T10:08:23;30.40;94.70
17956;DHT22;27666;51.498;11.966;2022-08-14T10:11:16;30.20;94.90
17956;DHT22;27666;51.498;11.966;2022-08-14T10:14:14;30.10;95.40
17956;DHT22;27666;51.498;11.966;2022-08-14T10:17:22;30.40;95.20
17956;DHT22;27666;51.498;11.966;2022-08-14T10:20:12;30.60;94.60
17956;DHT22;27666;51.498;11.966;2022-08-14T10:23:20;30.90;94.00
17956;DHT22;27666;51.498;11.966;2022-08-14T10:26:08;31.10;92.30
17956;DHT22;27666;51.498;11.966;2022-08-14T10:29:09;31.30;92.30
17956;DHT22;27666;51.498;11.966;2022-08-14T10:32:09;31.20;92.50
17956;DHT22;27666;51.498;11.966;2022-08-14T10:35:14;31.20;92.60
17956;DHT22;27666;51.498;11.966;2022-08-14T10:38:01;31.30;91.50
17956;DHT22;27666;51.498;11.966;2022-08-14T10:40:51;31.30;91.50
17956;DHT22;27666;51.498;11.966;2022-08-14T10:44:05;31.30;92.00
17956;DHT22;27666;51.498;11.966;2022-08-14T10:47:07;31.30;91.70
17956;DHT22;27666;51.498;11.966;2022-08-14T10:50:16;31.00;91.20
17956;DHT22;27666;51.498;11.966;2022-08-14T10:53:02;30.80;91.50
17956;DHT22;27666;51.498;11.966;2022-08-14T10:55:57;30.80;92.00
17956;DHT22;27666;51.498;11.966;2022-08-14T10:58:48;30.90;92.10
17956;DHT22;27666;51.498;11.966;2022-08-14T11:01:36;30.90;91.40
17956;DHT22;27666;51.498;11.966;2022-08-14T11:04:26;30.90;90.40
17956;DHT22;27666;51.498;11.966;2022-08-14T11:07:16;30.60;90.60
17956;DHT22;27666;51.498;11.966;2022-08-14T11:10:08;30.60;91.00
17956;DHT22;27666;51.498;11.966;2022-08-14T11:12:56;30.50;91.30
17956;DHT22;27666;51.498;11.966;2022-08-14T11:15:43;30.30;91.50
17956;DHT22;27666;51.498;11.966;2022-08-14T11:18:30;30.20;92.00
17956;DHT22;27666;51.498;11.966;2022-08-14T11:21:25;30.00;92.00
17956;DHT22;27666;51.498;11.966;2022-08-14T11:24:17;30.00;92.30
17956;DHT22;27666;51.498;11.966;2022-08-14T11:27:25;30.00;91.80
17956;DHT22;27666;51.498;11.966;2022-08-14T11:30:20;30.00;91.80
17956;DHT22;27666;51.498;11.966;2022-08-14T11:33:28;29.90;92.10
17956;DHT22;27666;51.498;11.966;2022-08-14T11:36:22;30.10;91.90
17956;DHT22;27666;51.498;11.966;2022-08-14T11:39:31;30.10;92.20
17956;DHT22;27666;51.498;11.966;2022-08-14T11:42:23;30.10;92.50
17956;DHT22;27666;51.498;11.966;2022-08-14T11:45:34;30.00;92.60
17956;DHT22;27666;51.498;11.966;2022-08-14T11:48:22;30.10;92.50
17956;DHT22;27666;51.498;11.966;2022-08-14T11:51:29;30.00;92.60
17956;DHT22;27666;51.498;11.966;2022-08-14T11:54:37;30.10;92.50
17956;DHT22;27666;51.498;11.966;2022-08-14T11:57:26;30.20;92.40
17956;DHT22;27666;51.498;11.966;2022-08-14T12:00:16;30.20;92.00
17956;DHT22;27666;51.498;11.966;2022-08-14T12:03:04;30.10;91.80
17956;DHT22;27666;51.498;11.966;2022-08-14T12:05:50;30.10;92.00
17956;DHT22;27666;51.498;11.966;2022-08-14T12:08:38;30.20;91.80
17956;DHT22;27666;51.498;11.966;2022-08-14T12:11:39;30.10;92.00
17956;DHT22;27666;51.498;11.966;2022-08-14T12:14:28;30.10;91.80
17956;DHT22;27666;51.498;11.966;2022-08-14T12:17:21;30.20;91.80
17956;DHT22;27666;51.498;11.966;2022-08-14T12:20:09;30.20;91.60
17956;DHT22;27666;51.498;11.966;2022-08-14T12:23:00;30.20;91.80
17956;DHT22;27666;51.498;11.966;2022-08-14T12:25:49;30.30;91.80
17956;DHT22;27666;51.498;11.966;2022-08-14T12:29:10;30.40;90.80
17956;DHT22;27666;51.498;11.966;2022-08-14T12:32:02;30.50;90.50
17956;DHT22;27666;51.498;11.966;2022-08-14T12:34:57;30.60;90.30
17956;DHT22;27666;51.498;11.966;2022-08-14T12:37:50;30.70;90.20
17956;DHT22;27666;51.498;11.966;2022-08-14T12:40:46;30.70;89.60
17956;DHT22;27666;51.498;11.966;2022-08-14T12:43:44;30.60;89.40
17956;DHT22;27666;51.498;11.966;2022-08-14T12:46:34;30.60;87.40
17956;DHT22;27666;51.498;11.966;2022-08-14T12:49:22;30.70;88.00
17956;DHT22;27666;51.498;11.966;2022-08-14T12:52:10;30.80;87.40
17956;DHT22;27666;51.498;11.966;2022-08-14T12:55:05;30.70;88.00
17956;DHT22;27666;51.498;11.966;2022-08-14T12:57:51;30.70;87.20
17956;DHT22;27666;51.498;11.966;2022-08-14T13:00:47;30.60;86.90
17956;DHT22;27666;51.498;11.966;2022-08-14T13:04:06;30.50;86.60
17956;DHT22;27666;51.498;11.966;2022-08-14T13:07:00;30.50;86.20
17956;DHT22;27666;51.498;11.966;2022-08-14T13:09:53;30.40;85.50
17956;DHT22;27666;51.498;11.966;2022-08-14T13:12:41;30.50;85.80
17956;DHT22;27666;51.498;11.966;2022-08-14T13:15:48;30.70;85.90
17956;DHT22;27666;51.498;11.966;2022-08-14T13:18:43;30.80;85.00
17956;DHT22;27666;51.498;11.966;2022-08-14T13:21:32;30.90;84.40
17956;DHT22;27666;51.498;11.966;2022-08-14T13:24:39;30.90;84.00
17956;DHT22;27666;51.498;11.966;2022-08-14T13:27:27;30.90;83.20
17956;DHT22;27666;51.498;11.966;2022-08-14T13:30:16;30.90;82.90
17956;DHT22;27666;51.498;11.966;2022-08-14T13:33:08;30.90;82.90
17956;DHT22;27666;51.498;11.966;2022-08-14T13:36:02;30.90;82.10
17956;DHT22;27666;51.498;11.966;2022-08-14T13:38:51;30.80;82.30
17956;DHT22;27666;51.498;11.966;2022-08-14T13:41:38;30.80;82.40
17956;DHT22;27666;51.498;11.966;2022-08-14T13:44:26;30.80;82.40
17956;DHT22;27666;51.498;11.966;2022-08-14T13:47:13;30.90;82.70
17956;DHT22;27666;51.498;11.966;2022-08-14T13:50:03;31.00;82.10
17956;DHT22;27666;51.498;11.966;2022-08-14T13:52:51;31.00;81.90
17956;DHT22;27666;51.498;11.966;2022-08-14T13:55:41;31.10;80.10
17956;DHT22;27666;51.498;11.966;2022-08-14T13:58:36;31.20;80.30
17956;DHT22;27666;51.498;11.966;2022-08-14T14:01:25;31.20;78.30
17956;DHT22;27666;51.498;11.966;2022-08-14T14:04:15;31.20;79.10
17956;DHT22;27666;51.498;11.966;2022-08-14T14:07:07;31.20;79.70
17956;DHT22;27666;51.498;11.966;2022-08-14T14:09:57;31.30;79.50
17956;DHT22;27666;51.498;11.966;2022-08-14T14:12:51;31.20;78.70
17956;DHT22;27666;51.498;11.966;2022-08-14T14:15:41;31.10;79.60
17956;DHT22;27666;51.498;11.966;2022-08-14T14:18:45;31.10;79.90
17956;DHT22;27666;51.498;11.966;2022-08-14T14:21:37;31.20;80.50
17956;DHT22;27666;51.498;11.966;2022-08-14T14:24:25;31.20;81.00
17956;DHT22;27666;51.498;11.966;2022-08-14T14:27:19;31.30;80.70
17956;DHT22;27666;51.498;11.966;2022-08-14T14:30:27;31.20;80.80
17956;DHT22;27666;51.498;11.966;2022-08-14T14:33:35;31.20;81.00
17956;DHT22;27666;51.498;11.966;2022-08-14T14:36:32;31.00;80.80
17956;DHT22;27666;51.498;11.966;2022-08-14T14:39:21;31.00;80.50
17956;DHT22;27666;51.498;11.966;2022-08-14T14:42:11;30.90;81.30
17956;DHT22;27666;51.498;11.966;2022-08-14T14:45:19;30.70;82.10
17956;DHT22;27666;51.498;11.966;2022-08-14T14:48:08;30.60;82.90
17956;DHT22;27666;51.498;11.966;2022-08-14T14:50:55;30.60;82.00
17956;DHT22;27666;51.498;11.966;2022-08-14T14:53:45;30.60;81.80
17956;DHT22;27666;51.498;11.966;2022-08-14T14:56:32;30.60;81.90
17956;DHT22;27666;51.498;11.966;2022-08-14T14:59:36;30.80;80.90
17956;DHT22;27666;51.498;11.966;2022-08-14T15:02:31;30.60;81.10
17956;DHT22;27666;51.498;11.966;2022-08-14T15:05:22;30.60;81.20
17956;DHT22;27666;51.498;11.966;2022-08-14T15:08:12;30.60;79.70
17956;DHT22;27666;51.498;11.966;2022-08-14T15:11:11;30.70;80.40
17956;DHT22;27666;51.498;11.966;2022-08-14T15:13:59;30.80;78.40
17956;DHT22;27666;51.498;11.966;2022-08-14T15:17:06;30.80;78.10
17956;DHT22;27666;51.498;11.966;2022-08-14T15:19:54;30.70;76.80
17956;DHT22;27666;51.498;11.966;2022-08-14T15:22:43;30.70;75.80
17956;DHT22;27666;51.498;11.966;2022-08-14T15:25:36;30.70;75.90
17956;DHT22;27666;51.498;11.966;2022-08-14T15:28:22;30.70;75.60
17956;DHT22;27666;51.498;11.966;2022-08-14T15:31:09;30.80;75.90
17956;DHT22;27666;51.498;11.966;2022-08-14T15:33:58;30.80;75.90
17956;DHT22;27666;51.498;11.966;2022-08-14T15:37:19;30.70;75.20
17956;DHT22;27666;51.498;11.966;2022-08-14T15:40:09;30.70;76.30
17956;DHT22;27666;51.498;11.966;2022-08-14T15:43:08;30.50;78.50
17956;DHT22;27666;51.498;11.966;2022-08-14T15:45:57;30.60;77.00
17956;DHT22;27666;51.498;11.966;2022-08-14T15:48:45;30.50;77.50
17956;DHT22;27666;51.498;11.966;2022-08-14T15:51:33;30.60;77.50
17956;DHT22;27666;51.498;11.966;2022-08-14T15:54:26;30.60;76.50
17956;DHT22;27666;51.498;11.966;2022-08-14T15:57:17;30.60;75.90
17956;DHT22;27666;51.498;11.966;2022-08-14T16:00:08;30.50;76.40
17956;DHT22;27666;51.498;11.966;2022-08-14T16:03:32;30.60;77.40
17956;DHT22;27666;51.498;11.966;2022-08-14T16:06:27;30.60;77.10
17956;DHT22;27666;51.498;11.966;2022-08-14T16:09:14;30.60;77.30
17956;DHT22;27666;51.498;11.966;2022-08-14T16:12:03;30.60;77.60
17956;DHT22;27666;51.498;11.966;2022-08-14T16:14:51;30.60;77.70
17956;DHT22;27666;51.498;11.966;2022-08-14T16:17:38;30.50;77.90
17956;DHT22;27666;51.498;11.966;2022-08-14T16:20:29;30.50;77.30
17956;DHT22;27666;51.498;11.966;2022-08-14T16:23:28;30.50;77.20
17956;DHT22;27666;51.498;11.966;2022-08-14T16:26:21;30.40;77.00
17956;DHT22;27666;51.498;11.966;2022-08-14T16:29:17;30.30;92.30
17956;DHT22;27666;51.498;11.966;2022-08-14T16:32:09;30.20;95.80
17956;DHT22;27666;51.498;11.966;2022-08-14T16:35:18;30.10;94.10
17956;DHT22;27666;51.498;11.966;2022-08-14T16:38:04;30.00;96.00
17956;DHT22;27666;51.498;11.966;2022-08-14T16:41:13;30.00;96.80
17956;DHT22;27666;51.498;11.966;2022-08-14T16:44:09;29.90;88.40
17956;DHT22;27666;51.498;11.966;2022-08-14T16:47:17;29.80;98.40
17956;DHT22;27666;51.498;11.966;2022-08-14T16:50:07;29.80;97.70
17956;DHT22;27666;51.498;11.966;2022-08-14T16:52:55;29.80;98.50
17956;DHT22;27666;51.498;11.966;2022-08-14T16:55:45;29.80;98.70
17956;DHT22;27666;51.498;11.966;2022-08-14T17:01:26;29.60;98.90
17956;DHT22;27666;51.498;11.966;2022-08-14T17:04:16;29.60;96.80
17956;DHT22;27666;51.498;11.966;2022-08-14T17:07:10;29.50;96.70
17956;DHT22;27666;51.498;11.966;2022-08-14T17:10:03;29.60;96.30
17956;DHT22;27666;51.498;11.966;2022-08-14T17:13:15;29.40;96.30
17956;DHT22;27666;51.498;11.966;2022-08-14T17:16:06;29.50;95.90
17956;DHT22;27666;51.498;11.966;2022-08-14T17:19:08;29.50;95.90
17956;DHT22;27666;51.498;11.966;2022-08-14T17:22:03;29.50;96.10
17956;DHT22;27666;51.498;11.966;2022-08-14T17:24:49;29.40;96.20
17956;DHT22;27666;51.498;11.966;2022-08-14T17:28:08;29.30;96.20
17956;DHT22;27666;51.498;11.966;2022-08-14T17:31:14;29.30;96.00
17956;DHT22;27666;51.498;11.966;2022-08-14T17:34:02;29.20;96.20
17956;DHT22;27666;51.498;11.966;2022-08-14T17:36:50;29.20;95.10
17956;DHT22;27666;51.498;11.966;2022-08-14T17:39:39;29.10;80.80
17956;DHT22;27666;51.498;11.966;2022-08-14T17:42:50;29.10;80.80
17956;DHT22;27666;51.498;11.966;2022-08-14T17:45:43;29.00;81.00
17956;DHT22;27666;51.498;11.966;2022-08-14T17:48:31;28.90;81.10
17956;DHT22;27666;51.498;11.966;2022-08-14T17:51:56;28.80;81.40
17956;DHT22;27666;51.498;11.966;2022-08-14T17:54:48;28.70;81.90
17956;DHT22;27666;51.498;11.966;2022-08-14T17:57:44;28.70;82.30
17956;DHT22;27666;51.498;11.966;2022-08-14T18:00:35;28.60;82.70
17956;DHT22;27666;51.498;11.966;2022-08-14T18:03:28;28.50;96.20
17956;DHT22;27666;51.498;11.966;2022-08-14T18:06:35;28.40;96.50
17956;DHT22;27666;51.498;11.966;2022-08-14T18:09:44;28.50;96.60
17956;DHT22;27666;51.498;11.966;2022-08-14T18:12:44;28.40;96.60
17956;DHT22;27666;51.498;11.966;2022-08-14T18:15:32;28.40;96.80
17956;DHT22;27666;51.498;11.966;2022-08-14T18:18:21;28.30;96.90
17956;DHT22;27666;51.498;11.966;2022-08-14T18:21:16;28.20;97.10
17956;DHT22;27666;51.498;11.966;2022-08-14T18:24:25;28.20;97.20
17956;DHT22;27666;51.498;11.966;2022-08-14T18:27:18;28.10;97.40
17956;DHT22;27666;51.498;11.966;2022-08-14T18:30:09;28.10;97.80
17956;DHT22;27666;51.498;11.966;2022-08-14T18:33:18;28.00;86.40
17956;DHT22;27666;51.498;11.966;2022-08-14T18:36:05;28.00;86.80
17956;DHT22;27666;51.498;11.966;2022-08-14T18:39:29;27.90;86.90